sensor_id;sensor_type;location;lat;lon;timestamp;temperature;humidity
22108;DHT22;11220;48.812;9.128;2022-10-16T00:00:34;18.80;98.30
22108;DHT22;11220;48.812;9.128;2022-10-16T00:03:01;18.80;98.30
22108;DHT22;11220;48.812;9.128;2022-10-16T00:05:26;18.80;98.30
22108;DHT22;11220;48.812;9.128;2022-10-16T00:07:52;18.80;98.30
22108;DHT22;11220;48.812;9.128;2022-10-16T00:10:17;19.20;98.40
22108;DHT22;11220;48.812;9.128;2022-10-16T00:12:43;18.80;98.30
22108;DHT22;11220;48.812;9.128;2022-10-16T00:15:09;18.80;98.30
22108;DHT22;11220;48.812;9.128;2022-10-16T00:17:34;18.80;98.30
22108;DHT22;11220;48.812;9.128;2022-10-16T00:20:00;19.30;98.40
22108;DHT22;11220;48.812;9.128;2022-10-16T00:22:25;18.80;98.30
22108;DHT22;11220;48.812;9.128;2022-10-16T00:24:51;18.80;98.30
22108;DHT22;11220;48.812;9.128;2022-10-16T00:27:16;18.80;98.30
22108;DHT22;11220;48.812;9.128;2022-10-16T00:29:42;18.80;98.30
22108;DHT22;11220;48.812;9.128;2022-10-16T00:32:08;18.80;98.30
22108;DHT22;11220;48.812;9.128;2022-10-16T00:34:34;18.80;98.30
22108;DHT22;11220;48.812;9.128;2022-10-16T00:36:59;18.80;98.30
22108;DHT22;11220;48.812;9.128;2022-10-16T00:39:25;19.00;98.40
22108;DHT22;11220;48.812;9.128;2022-10-16T00:41:51;19.30;98.50
22108;DHT22;11220;48.812;9.128;2022-10-16T00:47:09;18.80;98.30
22108;DHT22;11220;48.812;9.128;2022-10-16T00:49:36;18.80;98.30
22108;DHT22;11220;48.812;9.128;2022-10-16T00:52:02;18.80;98.30
22108;DHT22;11220;48.812;9.128;2022-10-16T00:54:30;18.80;98.30
22108;DHT22;11220;48.812;9.128;2022-10-16T00:56:59;18.80;98.30
22108;DHT22;11220;48.812;9.128;2022-10-16T00:59:29;18.80;98.30
22108;DHT22;11220;48.812;9.128;2022-10-16T01:01:56;18.80;98.30
22108;DHT22;11220;48.812;9.128;2022-10-16T01:04:24;19.40;98.50
22108;DHT22;11220;48.812;9.128;2022-10-16T01:07:14;18.80;98.40
22108;DHT22;11220;48.812;9.128;2022-10-16T01:09:49;18.80;98.40
22108;DHT22;11220;48.812;9.128;2022-10-16T01:12:25;18.80;98.40
22108;DHT22;11220;48.812;9.128;2022-10-16T01:14:57;18.80;98.40
22108;DHT22;11220;48.812;9.128;2022-10-16T01:17:45;18.80;98.40
22108;DHT22;11220;48.812;9.128;2022-10-16T01:20:26;18.70;98.30
22108;DHT22;11220;48.812;9.128;2022-10-16T01:23:07;18.80;98.40
22108;DHT22;11220;48.812;9.128;2022-10-16T01:28:34;18.80;98.40
22108;DHT22;11220;48.812;9.128;2022-10-16T01:31:01;18.80;98.40
22108;DHT22;11220;48.812;9.128;2022-10-16T01:33:34;18.80;98.40
22108;DHT22;11220;48.812;9.128;2022-10-16T01:36:07;19.20;98.50
22108;DHT22;11220;48.812;9.128;2022-10-16T01:38:37;18.80;98.40
22108;DHT22;11220;48.812;9.128;2022-10-16T01:41:25;18.80;98.40
22108;DHT22;11220;48.812;9.128;2022-10-16T01:44:11;18.80;98.40
22108;DHT22;11220;48.812;9.128;2022-10-16T01:46:39;18.80;98.40
22108;DHT22;11220;48.812;9.128;2022-10-16T01:49:06;18.70;98.40
22108;DHT22;11220;48.812;9.128;2022-10-16T01:51:33;18.70;98.40
22108;DHT22;11220;48.812;9.128;2022-10-16T01:54:00;18.80;98.40
22108;DHT22;11220;48.812;9.128;2022-10-16T01:56:28;18.70;98.40
22108;DHT22;11220;48.812;9.128;2022-10-16T01:59:07;18.70;98.40
22108;DHT22;11220;48.812;9.128;2022-10-16T02:01:36;19.40;98.80
22108;DHT22;11220;48.812;9.128;2022-10-16T02:06:52;18.70;98.40
22108;DHT22;11220;48.812;9.128;2022-10-16T02:09:18;18.70;98.40
22108;DHT22;11220;48.812;9.128;2022-10-16T02:11:44;18.80;98.40
22108;DHT22;11220;48.812;9.128;2022-10-16T02:14:09;18.70;98.40
22108;DHT22;11220;48.812;9.128;2022-10-16T02:16:38;18.70;98.40
22108;DHT22;11220;48.812;9.128;2022-10-16T02:19:05;18.90;98.50
22108;DHT22;11220;48.812;9.128;2022-10-16T02:21:44;18.70;98.40
22108;DHT22;11220;48.812;9.128;2022-10-16T02:29:47;18.70;98.40
22108;DHT22;11220;48.812;9.128;2022-10-16T02:32:19;18.60;98.40
22108;DHT22;11220;48.812;9.128;2022-10-16T02:34:47;18.70;98.40
22108;DHT22;11220;48.812;9.128;2022-10-16T02:37:14;18.70;98.40
22108;DHT22;11220;48.812;9.128;2022-10-16T02:39:41;18.70;98.40
22108;DHT22;11220;48.812;9.128;2022-10-16T02:42:13;18.80;98.50
22108;DHT22;11220;48.812;9.128;2022-10-16T02:44:39;18.90;98.50
22108;DHT22;11220;48.812;9.128;2022-10-16T02:47:05;18.70;98.50
22108;DHT22;11220;48.812;9.128;2022-10-16T02:49:31;18.80;98.50
22108;DHT22;11220;48.812;9.128;2022-10-16T02:51:56;18.70;98.50
22108;DHT22;11220;48.812;9.128;2022-10-16T02:54:22;18.70;98.50
22108;DHT22;11220;48.812;9.128;2022-10-16T02:56:47;18.70;98.50
22108;DHT22;11220;48.812;9.128;2022-10-16T02:59:13;18.70;98.50
22108;DHT22;11220;48.812;9.128;2022-10-16T03:01:38;18.70;98.50
22108;DHT22;11220;48.812;9.128;2022-10-16T03:04:04;18.70;98.50
22108;DHT22;11220;48.812;9.128;2022-10-16T03:06:29;18.70;98.90
22108;DHT22;11220;48.812;9.128;2022-10-16T03:08:55;18.70;98.50
22108;DHT22;11220;48.812;9.128;2022-10-16T03:11:20;18.80;98.50
22108;DHT22;11220;48.812;9.128;2022-10-16T03:13:46;18.70;98.50
22108;DHT22;11220;48.812;9.128;2022-10-16T03:16:11;18.70;98.50
22108;DHT22;11220;48.812;9.128;2022-10-16T03:18:37;19.30;98.70
22108;DHT22;11220;48.812;9.128;2022-10-16T03:21:03;18.70;98.50
22108;DHT22;11220;48.812;9.128;2022-10-16T03:23:28;18.70;98.50
22108;DHT22;11220;48.812;9.128;2022-10-16T03:25:54;18.80;98.60
22108;DHT22;11220;48.812;9.128;2022-10-16T03:28:20;19.30;98.70
22108;DHT22;11220;48.812;9.128;2022-10-16T03:30:45;18.70;98.50
22108;DHT22;11220;48.812;9.128;2022-10-16T03:33:11;18.70;98.60
22108;DHT22;11220;48.812;9.128;2022-10-16T03:35:36;18.70;98.60
22108;DHT22;11220;48.812;9.128;2022-10-16T03:38:02;18.70;98.60
22108;DHT22;11220;48.812;9.128;2022-10-16T03:40:28;18.70;98.60
22108;DHT22;11220;48.812;9.128;2022-10-16T03:42:53;18.70;98.60
22108;DHT22;11220;48.812;9.128;2022-10-16T03:45:23;18.70;98.60
22108;DHT22;11220;48.812;9.128;2022-10-16T03:47:48;18.70;98.60
22108;DHT22;11220;48.812;9.128;2022-10-16T03:50:14;19.10;98.70
22108;DHT22;11220;48.812;9.128;2022-10-16T03:52:40;18.80;98.60
22108;DHT22;11220;48.812;9.128;2022-10-16T03:55:06;18.70;98.60
22108;DHT22;11220;48.812;9.128;2022-10-16T03:57:31;18.70;98.60
22108;DHT22;11220;48.812;9.128;2022-10-16T03:59:57;18.70;98.60
22108;DHT22;11220;48.812;9.128;2022-10-16T04:02:22;18.70;98.60
22108;DHT22;11220;48.812;9.128;2022-10-16T04:04:48;18.70;98.60
22108;DHT22;11220;48.812;9.128;2022-10-16T04:07:14;18.80;98.70
22108;DHT22;11220;48.812;9.128;2022-10-16T04:09:40;18.70;98.60
22108;DHT22;11220;48.812;9.128;2022-10-16T04:12:05;18.70;98.60
22108;DHT22;11220;48.812;9.128;2022-10-16T04:14:31;18.70;98.60
22108;DHT22;11220;48.812;9.128;2022-10-16T04:16:56;19.80;98.90
22108;DHT22;11220;48.812;9.128;2022-10-16T04:19:22;18.70;98.60
22108;DHT22;11220;48.812;9.128;2022-10-16T04:21:47;18.70;99.00
22108;DHT22;11220;48.812;9.128;2022-10-16T04:24:13;18.70;98.60
22108;DHT22;11220;48.812;9.128;2022-10-16T04:26:38;19.00;98.70
22108;DHT22;11220;48.812;9.128;2022-10-16T04:29:04;19.40;98.80
22108;DHT22;11220;48.812;9.128;2022-10-16T04:31:29;18.60;98.60
22108;DHT22;11220;48.812;9.128;2022-10-16T04:33:55;18.60;98.60
22108;DHT22;11220;48.812;9.128;2022-10-16T04:36:20;18.60;98.60
22108;DHT22;11220;48.812;9.128;2022-10-16T04:38:46;18.70;98.60
22108;DHT22;11220;48.812;9.128;2022-10-16T04:41:11;18.60;98.60
22108;DHT22;11220;48.812;9.128;2022-10-16T04:43:37;18.60;98.60
22108;DHT22;11220;48.812;9.128;2022-10-16T04:46:02;18.60;98.60
22108;DHT22;11220;48.812;9.128;2022-10-16T04:48:30;18.60;98.60
22108;DHT22;11220;48.812;9.128;2022-10-16T04:50:55;18.70;98.70
22108;DHT22;11220;48.812;9.128;2022-10-16T04:53:21;18.60;98.60
22108;DHT22;11220;48.812;9.128;2022-10-16T04:55:47;18.60;98.60
22108;DHT22;11220;48.812;9.128;2022-10-16T04:58:13;19.00;98.80
22108;DHT22;11220;48.812;9.128;2022-10-16T05:00:38;18.60;98.70
22108;DHT22;11220;48.812;9.128;2022-10-16T05:03:04;18.60;98.70
22108;DHT22;11220;48.812;9.128;2022-10-16T05:05:33;18.90;98.70
22108;DHT22;11220;48.812;9.128;2022-10-16T05:07:59;18.60;98.70
22108;DHT22;11220;48.812;9.128;2022-10-16T05:10:24;18.60;98.70
22108;DHT22;11220;48.812;9.128;2022-10-16T05:12:50;19.30;98.90
22108;DHT22;11220;48.812;9.128;2022-10-16T05:15:17;18.60;98.70
22108;DHT22;11220;48.812;9.128;2022-10-16T05:17:42;18.60;98.70
22108;DHT22;11220;48.812;9.128;2022-10-16T05:20:08;18.60;98.70
22108;DHT22;11220;48.812;9.128;2022-10-16T05:22:33;18.60;98.70
22108;DHT22;11220;48.812;9.128;2022-10-16T05:24:59;18.70;98.80
22108;DHT22;11220;48.812;9.128;2022-10-16T05:27:25;18.60;98.70
22108;DHT22;11220;48.812;9.128;2022-10-16T05:29:50;18.60;98.70
22108;DHT22;11220;48.812;9.128;2022-10-16T05:32:16;18.60;98.70
22108;DHT22;11220;48.812;9.128;2022-10-16T05:34:43;19.00;98.90
22108;DHT22;11220;48.812;9.128;2022-10-16T05:37:09;19.30;98.90
22108;DHT22;11220;48.812;9.128;2022-10-16T05:39:35;18.60;98.70
22108;DHT22;11220;48.812;9.128;2022-10-16T05:42:02;18.60;98.70
22108;DHT22;11220;48.812;9.128;2022-10-16T05:44:28;18.60;98.70
22108;DHT22;11220;48.812;9.128;2022-10-16T05:46:53;18.60;98.70
22108;DHT22;11220;48.812;9.128;2022-10-16T05:49:19;18.60;98.80
22108;DHT22;11220;48.812;9.128;2022-10-16T05:51:44;18.60;98.80
22108;DHT22;11220;48.812;9.128;2022-10-16T05:54:10;18.60;98.80
22108;DHT22;11220;48.812;9.128;2022-10-16T05:56:35;18.60;98.70
22108;DHT22;11220;48.812;9.128;2022-10-16T05:59:03;18.60;98.80
22108;DHT22;11220;48.812;9.128;2022-10-16T06:01:29;18.60;98.80
22108;DHT22;11220;48.812;9.128;2022-10-16T06:03:56;18.70;98.80
22108;DHT22;11220;48.812;9.128;2022-10-16T06:06:24;18.80;98.80
22108;DHT22;11220;48.812;9.128;2022-10-16T06:08:52;19.40;99.00
22108;DHT22;11220;48.812;9.128;2022-10-16T06:11:26;18.70;98.80
22108;DHT22;11220;48.812;9.128;2022-10-16T06:13:53;18.60;98.80
22108;DHT22;11220;48.812;9.128;2022-10-16T06:16:19;18.60;98.80
22108;DHT22;11220;48.812;9.128;2022-10-16T06:18:45;18.60;98.80
22108;DHT22;11220;48.812;9.128;2022-10-16T06:21:19;18.60;99.20
22108;DHT22;11220;48.812;9.128;2022-10-16T06:23:45;18.60;98.80
22108;DHT22;11220;48.812;9.128;2022-10-16T06:26:17;18.60;98.80
22108;DHT22;11220;48.812;9.128;2022-10-16T06:28:43;18.60;98.70
22108;DHT22;11220;48.812;9.128;2022-10-16T06:31:10;18.60;98.70
22108;DHT22;11220;48.812;9.128;2022-10-16T06:33:36;19.50;99.00
22108;DHT22;11220;48.812;9.128;2022-10-16T06:36:04;18.60;98.70
22108;DHT22;11220;48.812;9.128;2022-10-16T06:38:30;18.60;98.70
22108;DHT22;11220;48.812;9.128;2022-10-16T06:40:56;18.50;98.70
22108;DHT22;11220;48.812;9.128;2022-10-16T06:43:21;18.50;98.70
22108;DHT22;11220;48.812;9.128;2022-10-16T06:45:54;18.60;98.80
22108;DHT22;11220;48.812;9.128;2022-10-16T06:48:21;18.60;98.70
22108;DHT22;11220;48.812;9.128;2022-10-16T06:51:03;18.60;98.70
22108;DHT22;11220;48.812;9.128;2022-10-16T06:53:33;18.60;98.70
22108;DHT22;11220;48.812;9.128;2022-10-16T06:56:09;18.60;98.70
22108;DHT22;11220;48.812;9.128;2022-10-16T06:58:35;18.60;98.70
22108;DHT22;11220;48.812;9.128;2022-10-16T07:01:01;18.60;98.70
22108;DHT22;11220;48.812;9.128;2022-10-16T07:03:26;18.60;98.70
22108;DHT22;11220;48.812;9.128;2022-10-16T07:05:52;18.60;98.70
22108;DHT22;11220;48.812;9.128;2022-10-16T07:08:17;18.60;98.70
22108;DHT22;11220;48.812;9.128;2022-10-16T07:10:43;18.60;98.70
22108;DHT22;11220;48.812;9.128;2022-10-16T07:13:08;18.60;98.70
22108;DHT22;11220;48.812;9.128;2022-10-16T07:15:34;18.60;98.70
22108;DHT22;11220;48.812;9.128;2022-10-16T07:18:00;18.70;98.70
22108;DHT22;11220;48.812;9.128;2022-10-16T07:20:25;18.60;98.70
22108;DHT22;11220;48.812;9.128;2022-10-16T07:22:51;18.60;98.70
22108;DHT22;11220;48.812;9.128;2022-10-16T07:25:17;18.60;98.70
22108;DHT22;11220;48.812;9.128;2022-10-16T07:27:43;19.30;98.90
22108;DHT22;11220;48.812;9.128;2022-10-16T07:30:09;18.60;98.70
22108;DHT22;11220;48.812;9.128;2022-10-16T07:32:34;18.60;98.70
22108;DHT22;11220;48.812;9.128;2022-10-16T07:35:00;18.60;98.70
22108;DHT22;11220;48.812;9.128;2022-10-16T07:37:25;18.90;98.80
22108;DHT22;11220;48.812;9.128;2022-10-16T07:39:51;18.60;98.70
22108;DHT22;11220;48.812;9.128;2022-10-16T07:42:17;18.70;98.80
22108;DHT22;11220;48.812;9.128;2022-10-16T07:44:42;18.60;98.70
22108;DHT22;11220;48.812;9.128;2022-10-16T07:47:09;18.60;98.70
22108;DHT22;11220;48.812;9.128;2022-10-16T07:49:35;18.60;98.70
22108;DHT22;11220;48.812;9.128;2022-10-16T07:52:00;18.60;98.70
22108;DHT22;11220;48.812;9.128;2022-10-16T07:54:26;18.60;98.70
22108;DHT22;11220;48.812;9.128;2022-10-16T07:56:51;18.60;98.70
22108;DHT22;11220;48.812;9.128;2022-10-16T07:59:17;18.60;98.70
22108;DHT22;11220;48.812;9.128;2022-10-16T08:01:42;18.60;98.70
22108;DHT22;11220;48.812;9.128;2022-10-16T08:04:09;18.60;98.70
22108;DHT22;11220;48.812;9.128;2022-10-16T08:06:36;18.70;98.80
22108;DHT22;11220;48.812;9.128;2022-10-16T08:09:02;18.70;98.80
22108;DHT22;11220;48.812;9.128;2022-10-16T08:11:28;18.70;98.80
22108;DHT22;11220;48.812;9.128;2022-10-16T08:13:54;19.30;98.90
22108;DHT22;11220;48.812;9.128;2022-10-16T08:16:20;18.70;98.80
22108;DHT22;11220;48.812;9.128;2022-10-16T08:18:45;18.70;98.80
22108;DHT22;11220;48.812;9.128;2022-10-16T08:21:16;18.70;98.90
22108;DHT22;11220;48.812;9.128;2022-10-16T08:23:42;19.50;99.20
22108;DHT22;11220;48.812;9.128;2022-10-16T08:26:09;18.70;99.00
22108;DHT22;11220;48.812;9.128;2022-10-16T08:28:35;18.70;99.10
22108;DHT22;11220;48.812;9.128;2022-10-16T08:31:12;18.70;99.10
22108;DHT22;11220;48.812;9.128;2022-10-16T08:33:39;18.60;99.20
22108;DHT22;11220;48.812;9.128;2022-10-16T08:36:06;18.60;99.20
22108;DHT22;11220;48.812;9.128;2022-10-16T08:38:32;18.60;99.30
22108;DHT22;11220;48.812;9.128;2022-10-16T08:44:04;18.60;99.40
22108;DHT22;11220;48.812;9.128;2022-10-16T08:46:50;18.60;99.50
22108;DHT22;11220;48.812;9.128;2022-10-16T08:49:18;18.70;99.50
22108;DHT22;11220;48.812;9.128;2022-10-16T08:51:44;18.60;99.50
22108;DHT22;11220;48.812;9.128;2022-10-16T08:54:19;18.60;99.60
22108;DHT22;11220;48.812;9.128;2022-10-16T08:56:46;18.60;99.60
22108;DHT22;11220;48.812;9.128;2022-10-16T08:59:14;18.60;99.60
22108;DHT22;11220;48.812;9.128;2022-10-16T09:01:44;18.70;99.60
22108;DHT22;11220;48.812;9.128;2022-10-16T09:09:46;18.80;99.60
22108;DHT22;11220;48.812;9.128;2022-10-16T09:18:24;18.80;99.50
22108;DHT22;11220;48.812;9.128;2022-10-16T09:23:10;18.80;99.50
22108;DHT22;11220;48.812;9.128;2022-10-16T09:25:39;18.80;99.50
22108;DHT22;11220;48.812;9.128;2022-10-16T09:28:05;18.80;99.50
22108;DHT22;11220;48.812;9.128;2022-10-16T09:30:30;18.90;99.50
22108;DHT22;11220;48.812;9.128;2022-10-16T09:32:58;19.20;99.50
22108;DHT22;11220;48.812;9.128;2022-10-16T09:35:44;18.90;99.40
22108;DHT22;11220;48.812;9.128;2022-10-16T09:38:22;18.90;99.40
22108;DHT22;11220;48.812;9.128;2022-10-16T09:40:47;18.90;99.40
22108;DHT22;11220;48.812;9.128;2022-10-16T09:43:40;18.90;99.40
22108;DHT22;11220;48.812;9.128;2022-10-16T09:46:19;18.90;99.40
22108;DHT22;11220;48.812;9.128;2022-10-16T09:48:50;19.00;99.40
22108;DHT22;11220;48.812;9.128;2022-10-16T09:51:26;19.00;99.40
22108;DHT22;11220;48.812;9.128;2022-10-16T09:54:01;19.00;99.30
22108;DHT22;11220;48.812;9.128;2022-10-16T09:56:30;19.00;99.30
22108;DHT22;11220;48.812;9.128;2022-10-16T09:58:59;19.00;99.30
22108;DHT22;11220;48.812;9.128;2022-10-16T10:01:32;19.00;99.30
22108;DHT22;11220;48.812;9.128;2022-10-16T10:04:00;19.40;99.40
22108;DHT22;11220;48.812;9.128;2022-10-16T10:06:34;19.50;99.40
22108;DHT22;11220;48.812;9.128;2022-10-16T10:11:44;19.10;99.30
22108;DHT22;11220;48.812;9.128;2022-10-16T10:14:17;19.20;99.30
22108;DHT22;11220;48.812;9.128;2022-10-16T10:16:43;19.10;99.20
22108;DHT22;11220;48.812;9.128;2022-10-16T10:19:21;19.10;99.20
22108;DHT22;11220;48.812;9.128;2022-10-16T10:21:48;19.10;99.20
22108;DHT22;11220;48.812;9.128;2022-10-16T10:24:17;19.20;99.70
22108;DHT22;11220;48.812;9.128;2022-10-16T10:32:27;19.20;99.20
22108;DHT22;11220;48.812;9.128;2022-10-16T10:35:38;19.20;99.10
22108;DHT22;11220;48.812;9.128;2022-10-16T10:38:31;19.20;99.10
22108;DHT22;11220;48.812;9.128;2022-10-16T10:46:32;19.30;99.20
22108;DHT22;11220;48.812;9.128;2022-10-16T10:51:30;19.30;99.20
22108;DHT22;11220;48.812;9.128;2022-10-16T11:05:38;19.40;99.20
22108;DHT22;11220;48.812;9.128;2022-10-16T11:08:30;19.30;99.20
22108;DHT22;11220;48.812;9.128;2022-10-16T11:11:00;19.30;99.20
22108;DHT22;11220;48.812;9.128;2022-10-16T11:13:35;19.40;99.20
22108;DHT22;11220;48.812;9.128;2022-10-16T11:16:46;19.40;99.20
22108;DHT22;11220;48.812;9.128;2022-10-16T11:19:34;19.40;99.30
22108;DHT22;11220;48.812;9.128;2022-10-16T11:30:26;19.50;99.30
22108;DHT22;11220;48.812;9.128;2022-10-16T11:35:43;19.40;99.30
22108;DHT22;11220;48.812;9.128;2022-10-16T11:40:41;19.50;99.40
22108;DHT22;11220;48.812;9.128;2022-10-16T11:43:16;19.50;99.40
22108;DHT22;11220;48.812;9.128;2022-10-16T11:45:56;19.50;99.40
22108;DHT22;11220;48.812;9.128;2022-10-16T11:49:03;19.50;99.40
22108;DHT22;11220;48.812;9.128;2022-10-16T11:51:42;19.50;99.40
22108;DHT22;11220;48.812;9.128;2022-10-16T11:54:42;19.50;99.40
22108;DHT22;11220;48.812;9.128;2022-10-16T11:57:23;19.60;99.80
22108;DHT22;11220;48.812;9.128;2022-10-16T11:59:58;19.60;99.40
22108;DHT22;11220;48.812;9.128;2022-10-16T12:02:54;19.60;99.40
22108;DHT22;11220;48.812;9.128;2022-10-16T12:08:09;19.60;99.40
22108;DHT22;11220;48.812;9.128;2022-10-16T12:10:37;19.60;99.40
22108;DHT22;11220;48.812;9.128;2022-10-16T12:13:04;19.70;99.50
22108;DHT22;11220;48.812;9.128;2022-10-16T12:15:33;19.60;99.40
22108;DHT22;11220;48.812;9.128;2022-10-16T12:17:59;19.70;99.50
22108;DHT22;11220;48.812;9.128;2022-10-16T12:20:30;19.60;99.40
22108;DHT22;11220;48.812;9.128;2022-10-16T12:22:59;19.60;99.40
22108;DHT22;11220;48.812;9.128;2022-10-16T12:25:36;19.60;99.40
22108;DHT22;11220;48.812;9.128;2022-10-16T12:28:20;19.70;99.50
22108;DHT22;11220;48.812;9.128;2022-10-16T12:30:54;19.70;99.40
22108;DHT22;11220;48.812;9.128;2022-10-16T12:33:27;19.70;99.40
22108;DHT22;11220;48.812;9.128;2022-10-16T12:35:53;19.70;99.40
22108;DHT22;11220;48.812;9.128;2022-10-16T12:38:57;19.90;99.50
22108;DHT22;11220;48.812;9.128;2022-10-16T12:41:34;19.70;99.40
22108;DHT22;11220;48.812;9.128;2022-10-16T12:44:01;19.70;99.40
22108;DHT22;11220;48.812;9.128;2022-10-16T12:51:54;19.80;99.40
22108;DHT22;11220;48.812;9.128;2022-10-16T12:54:36;19.70;99.40
22108;DHT22;11220;48.812;9.128;2022-10-16T13:13:59;19.80;99.40
22108;DHT22;11220;48.812;9.128;2022-10-16T13:19:19;19.80;99.30
22108;DHT22;11220;48.812;9.128;2022-10-16T13:22:26;19.80;99.30
22108;DHT22;11220;48.812;9.128;2022-10-16T13:25:22;19.80;99.30
22108;DHT22;11220;48.812;9.128;2022-10-16T13:28:05;19.80;99.20
22108;DHT22;11220;48.812;9.128;2022-10-16T13:30:40;19.90;99.30
22108;DHT22;11220;48.812;9.128;2022-10-16T13:35:51;19.90;99.60
22108;DHT22;11220;48.812;9.128;2022-10-16T13:38:20;19.90;99.20
22108;DHT22;11220;48.812;9.128;2022-10-16T13:40:52;19.90;99.20
22108;DHT22;11220;48.812;9.128;2022-10-16T13:43:36;20.00;99.20
22108;DHT22;11220;48.812;9.128;2022-10-16T13:46:05;19.90;99.20
22108;DHT22;11220;48.812;9.128;2022-10-16T13:48:32;19.90;99.20
22108;DHT22;11220;48.812;9.128;2022-10-16T13:51:14;19.90;99.20
22108;DHT22;11220;48.812;9.128;2022-10-16T13:53:41;19.90;99.20
22108;DHT22;11220;48.812;9.128;2022-10-16T13:56:11;19.90;99.10
22108;DHT22;11220;48.812;9.128;2022-10-16T13:58:36;19.90;99.10
22108;DHT22;11220;48.812;9.128;2022-10-16T14:01:04;20.00;99.10
22108;DHT22;11220;48.812;9.128;2022-10-16T14:03:31;19.90;99.10
22108;DHT22;11220;48.812;9.128;2022-10-16T14:06:00;20.20;99.10
22108;DHT22;11220;48.812;9.128;2022-10-16T14:08:27;19.90;99.10
22108;DHT22;11220;48.812;9.128;2022-10-16T14:10:58;19.90;99.40
22108;DHT22;11220;48.812;9.128;2022-10-16T14:13:31;20.00;99.10
22108;DHT22;11220;48.812;9.128;2022-10-16T14:16:00;20.00;99.00
22108;DHT22;11220;48.812;9.128;2022-10-16T14:18:28;20.00;99.10
22108;DHT22;11220;48.812;9.128;2022-10-16T14:20:54;20.50;99.20
22108;DHT22;11220;48.812;9.128;2022-10-16T14:25:46;20.00;99.00
22108;DHT22;11220;48.812;9.128;2022-10-16T14:28:20;20.00;99.00
22108;DHT22;11220;48.812;9.128;2022-10-16T14:30:58;20.30;99.10
22108;DHT22;11220;48.812;9.128;2022-10-16T14:38:38;19.90;99.00
22108;DHT22;11220;48.812;9.128;2022-10-16T14:41:04;20.00;99.00
22108;DHT22;11220;48.812;9.128;2022-10-16T14:43:40;20.10;99.10
22108;DHT22;11220;48.812;9.128;2022-10-16T14:46:13;20.00;99.00
22108;DHT22;11220;48.812;9.128;2022-10-16T14:48:50;20.00;99.00
22108;DHT22;11220;48.812;9.128;2022-10-16T14:51:17;20.00;99.00
22108;DHT22;11220;48.812;9.128;2022-10-16T14:53:44;20.00;99.00
22108;DHT22;11220;48.812;9.128;2022-10-16T14:56:19;20.00;99.00
22108;DHT22;11220;48.812;9.128;2022-10-16T14:58:45;20.10;99.00
22108;DHT22;11220;48.812;9.128;2022-10-16T15:01:11;20.00;98.90
22108;DHT22;11220;48.812;9.128;2022-10-16T15:03:38;20.00;98.90
22108;DHT22;11220;48.812;9.128;2022-10-16T15:06:04;20.10;98.90
22108;DHT22;11220;48.812;9.128;2022-10-16T15:08:34;20.00;99.30
22108;DHT22;11220;48.812;9.128;2022-10-16T15:11:00;20.00;98.90
22108;DHT22;11220;48.812;9.128;2022-10-16T15:13:25;20.00;98.90
22108;DHT22;11220;48.812;9.128;2022-10-16T15:15:53;20.00;98.90
22108;DHT22;11220;48.812;9.128;2022-10-16T15:18:18;20.10;98.90
22108;DHT22;11220;48.812;9.128;2022-10-16T15:20:49;20.10;99.00
22108;DHT22;11220;48.812;9.128;2022-10-16T15:23:18;20.10;99.20
22108;DHT22;11220;48.812;9.128;2022-10-16T15:25:46;20.10;99.30
22108;DHT22;11220;48.812;9.128;2022-10-16T15:28:14;20.10;99.30
22108;DHT22;11220;48.812;9.128;2022-10-16T15:30:40;20.20;99.40
22108;DHT22;11220;48.812;9.128;2022-10-16T15:33:12;20.00;99.30
22108;DHT22;11220;48.812;9.128;2022-10-16T15:35:39;20.00;99.30
22108;DHT22;11220;48.812;9.128;2022-10-16T15:38:04;20.10;99.40
22108;DHT22;11220;48.812;9.128;2022-10-16T15:40:30;20.40;99.40
22108;DHT22;11220;48.812;9.128;2022-10-16T15:42:55;20.10;99.30
22108;DHT22;11220;48.812;9.128;2022-10-16T15:45:21;20.10;99.30
22108;DHT22;11220;48.812;9.128;2022-10-16T15:47:46;20.10;99.30
22108;DHT22;11220;48.812;9.128;2022-10-16T15:50:13;20.10;99.30
22108;DHT22;11220;48.812;9.128;2022-10-16T15:52:40;20.40;99.30
22108;DHT22;11220;48.812;9.128;2022-10-16T15:55:08;20.00;99.20
22108;DHT22;11220;48.812;9.128;2022-10-16T15:57:34;20.00;99.10
22108;DHT22;11220;48.812;9.128;2022-10-16T15:59:59;20.10;99.20
22108;DHT22;11220;48.812;9.128;2022-10-16T16:02:25;20.10;99.10
22108;DHT22;11220;48.812;9.128;2022-10-16T16:04:50;20.00;99.00
22108;DHT22;11220;48.812;9.128;2022-10-16T16:07:16;20.10;99.10
22108;DHT22;11220;48.812;9.128;2022-10-16T16:09:41;20.00;99.00
22108;DHT22;11220;48.812;9.128;2022-10-16T16:12:07;20.50;99.10
22108;DHT22;11220;48.812;9.128;2022-10-16T16:14:33;20.00;99.00
22108;DHT22;11220;48.812;9.128;2022-10-16T16:16:58;20.00;99.00
22108;DHT22;11220;48.812;9.128;2022-10-16T16:19:24;20.30;99.00
22108;DHT22;11220;48.812;9.128;2022-10-16T16:21:52;20.00;98.90
22108;DHT22;11220;48.812;9.128;2022-10-16T16:24:17;20.10;98.90
22108;DHT22;11220;48.812;9.128;2022-10-16T16:26:43;20.00;98.90
22108;DHT22;11220;48.812;9.128;2022-10-16T16:29:15;20.00;98.90
22108;DHT22;11220;48.812;9.128;2022-10-16T16:31:42;20.00;98.90
22108;DHT22;11220;48.812;9.128;2022-10-16T16:34:08;20.30;99.00
22108;DHT22;11220;48.812;9.128;2022-10-16T16:36:34;20.00;98.90
22108;DHT22;11220;48.812;9.128;2022-10-16T16:39:01;19.90;98.80
22108;DHT22;11220;48.812;9.128;2022-10-16T16:41:29;20.00;98.80
22108;DHT22;11220;48.812;9.128;2022-10-16T16:43:56;19.90;98.80
22108;DHT22;11220;48.812;9.128;2022-10-16T16:46:26;20.00;98.80
22108;DHT22;11220;48.812;9.128;2022-10-16T16:48:51;20.00;98.80
22108;DHT22;11220;48.812;9.128;2022-10-16T16:51:20;19.90;98.80
22108;DHT22;11220;48.812;9.128;2022-10-16T16:53:48;20.00;98.80
22108;DHT22;11220;48.812;9.128;2022-10-16T16:56:15;20.00;98.80
22108;DHT22;11220;48.812;9.128;2022-10-16T16:58:41;20.20;98.80
22108;DHT22;11220;48.812;9.128;2022-10-16T17:01:09;20.00;98.80
22108;DHT22;11220;48.812;9.128;2022-10-16T17:03:35;20.00;98.80
22108;DHT22;11220;48.812;9.128;2022-10-16T17:06:04;20.00;98.80
22108;DHT22;11220;48.812;9.128;2022-10-16T17:08:30;19.90;98.80
22108;DHT22;11220;48.812;9.128;2022-10-16T17:10:56;19.90;98.80
22108;DHT22;11220;48.812;9.128;2022-10-16T17:13:23;19.90;98.80
22108;DHT22;11220;48.812;9.128;2022-10-16T17:15:50;19.80;98.80
22108;DHT22;11220;48.812;9.128;2022-10-16T17:18:16;19.90;98.80
22108;DHT22;11220;48.812;9.128;2022-10-16T17:20:42;19.90;98.80
22108;DHT22;11220;48.812;9.128;2022-10-16T17:23:09;19.90;98.80
22108;DHT22;11220;48.812;9.128;2022-10-16T17:25:39;19.90;98.80
22108;DHT22;11220;48.812;9.128;2022-10-16T17:28:05;19.80;98.80
22108;DHT22;11220;48.812;9.128;2022-10-16T17:30:31;19.90;98.80
22108;DHT22;11220;48.812;9.128;2022-10-16T17:32:58;20.20;98.90